Salida, CO

1:34 PM MDT on August 28, 2016 (GMT -0600)
Mesa Antero | | Change Station

Elev 8202 ft 38.68 °N, 106.10 °W | Updated 4 minutes ago

Scattered Clouds
Scattered Clouds
70.2 °F
Feels Like 77 °F
N
0.0
Wind Variable Wind from WNW
Gusts 5.0 mph

Today
High -- | Low -- °F
--% Chance of Precip.
Yesterday
High -- | Low -- °F
Precip. -- in
Pressure 30.40 in
Visibility 10.0 miles
Clouds Scattered Clouds 6500 ft
Heat Index 77 °F
Dew Point 40 °F
Humidity 34%
Rainfall 0.00 in
Snow Depth Not available.
6:30 AM 7:39 PM
Waning Crescent, 14% visible
METAR KANK 281915Z AUTO 04003KT 10SM SCT065 24/04 A3040 RMK AO1 T02370035
Pressure 30.40 in
Visibility 10.0 miles
Clouds Scattered Clouds 6500 ft
Heat Index 77 °F
Dew Point 40 °F
Humidity 34%
Rainfall 0.00 in
Snow Depth Not available.
6:30 AM 7:39 PM
Waning Crescent, 14% visible
METAR KANK 281915Z AUTO 04003KT 10SM SCT065 24/04 A3040 RMK AO1 T02370035

10-Day Weather Forecast

Almanac

Astronomy

Aug. 28, 2016 Rise Set
Actual Time
Civil Twilight
Nautical Twilight
Astronomical Twilight
Moon
Length of Visible Light
Length of Day
Tomorrow will be .
, % of the Moon is Illuminated

Today's Extremes

State Highs State Lows

Community

WunderPhotos

Upload Photos

1,935,658 photos uploaded!

WunderBlog® & News

Nearby

Air Quality

  Air Quality AQ Index Pollutant
Not available.

Snow Depth

Station Depth Elevation

Earthquake Activity

City Distance Mag. Time & Date
Minimum magnitude displayed is 2.5.

Coastal Water Temperatures

Place Temperature

Stations

Nearby Weather Stations

Station Location Temp. Windchill Dew Point Humidity Wind Precip. Elev Updated Type
                   

Watches & Warnings

There are currently no watches in effect.